Peneda — CSSM — position and weather

sailwx.info

Track history (hours):
 
Tides and Currents Weather Stations Pressure Air Temp Water Temp Dewpoint Dewpoint Depression Visibility Wind Speed Wind Dir Waves Ship Positions

Peneda

Last reported at 2018-Apr-22 06:58 UTC. Time now 2018-Apr-24 08:51 UTC.
Position N 38°28' W 008°48'.

Length 33 m.

Type: Tug. MMSI: 263601670.

Date/timePositionNaut miles runAvg speedWind from/ knotsBaromVisibWave heightAir tempDewpointWater temp
2018-Apr-22 06:58N 38°28' W 008°48'9 1.6
2018-Apr-22 01:40N 38°26' W 008°59'310.6
2018-Apr-22 01:25N 38°24' W 008°58'2 0.0
2018-Apr-20 08:21N 38°22' W 008°59'610.8
2018-Apr-20 07:47N 38°16' W 008°59'410.5
2018-Apr-20 07:26N 38°12' W 008°59'511.0
2018-Apr-20 06:58N 38°07' W 008°59'610.9
2018-Apr-20 06:25N 38°01' W 008°57'511.0
2018-Apr-20 05:58N 37°57' W 008°55'3 5.1
2018-Apr-20 05:26N 37°57' W 008°52'0 0.0
2018-Apr-19 21:26N 37°57' W 008°52'0 0.0
2018-Apr-19 20:59N 37°57' W 008°52'0 0.0
2018-Apr-19 20:29N 37°57' W 008°52'0 0.0
2018-Apr-19 19:56N 37°57' W 008°52'0 0.0
2018-Apr-19 19:29N 37°57' W 008°52'0 0.0
2018-Apr-19 18:59N 37°57' W 008°52'0 0.0
2018-Apr-19 18:29N 37°57' W 008°52'0 0.0
2018-Apr-19 17:59N 37°57' W 008°52'0 0.0
2018-Apr-19 17:26N 37°57' W 008°52'0 0.0
2018-Apr-19 16:59N 37°57' W 008°52'0 0.0
2018-Apr-19 16:29N 37°57' W 008°52'0 0.0
2018-Apr-19 15:59N 37°57' W 008°52'0 0.0
2018-Apr-19 15:29N 37°57' W 008°52'0 0.0
2018-Apr-19 14:59N 37°57' W 008°52'0 0.0
2018-Apr-19 14:29N 37°57' W 008°52'0 0.0
2018-Apr-19 13:59N 37°57' W 008°52'1 2.9
2018-Apr-19 13:30N 37°55' W 008°52'1 1.7
2018-Apr-19 13:00N 37°56' W 008°51'0 0.0
2018-Apr-19 12:30N 37°56' W 008°51'0 0.0
2018-Apr-19 11:49N 37°56' W 008°51'0 0.1
2018-Apr-19 11:25N 37°56' W 008°51'0 1.0
2018-Apr-19 11:00N 37°55' W 008°50'1 2.2
2018-Apr-19 10:30N 37°54' W 008°50'2 2.9
2018-Apr-19 09:59N 37°56' W 008°51'0 0.5
2018-Apr-19 09:31N 37°56' W 008°51'0 0.2
2018-Apr-19 09:00N 37°56' W 008°51'0 0.7
2018-Apr-19 08:30N 37°56' W 008°51'0 0.0
2018-Apr-19 07:54N 37°56' W 008°51'0 0.0
2018-Apr-19 07:30N 37°56' W 008°51'0 0.0
2018-Apr-19 07:00N 37°56' W 008°51'0 0.0
2018-Apr-19 06:30N 37°56' W 008°51'0 0.0
2018-Apr-19 06:00N 37°56' W 008°51'0 0.0
2018-Apr-19 05:30N 37°56' W 008°51'0 0.0
2018-Apr-19 05:00N 37°56' W 008°51'0 0.0
2018-Apr-19 04:27N 37°56' W 008°51'0 0.0
2018-Apr-19 03:57N 37°56' W 008°51'0 0.0
2018-Apr-19 03:30N 37°56' W 008°51'0 0.0
2018-Apr-19 03:00N 37°56' W 008°51'0 0.0
2018-Apr-19 02:30N 37°56' W 008°51'1 2.1
2018-Apr-19 01:59N 37°57' W 008°52'0 0.1
2018-Apr-19 01:30N 37°57' W 008°52'0 0.0
2018-Apr-19 01:00N 37°57' W 008°52'0 0.0
2018-Apr-19 00:30N 37°57' W 008°52'0 0.0
2018-Apr-19 00:00N 37°57' W 008°52'0 0.0
2018-Apr-18 23:30N 37°57' W 008°52'0 0.0
2018-Apr-18 23:00N 37°57' W 008°52'0 0.0
2018-Apr-18 22:30N 37°57' W 008°52'0 0.0
2018-Apr-18 22:00N 37°57' W 008°52'0 0.0
2018-Apr-18 21:30N 37°57' W 008°52'0 0.7
2018-Apr-18 21:00N 37°57' W 008°52'3 5.6
2018-Apr-18 20:30N 37°58' W 008°55'611.5
2018-Apr-18 19:59N 38°04' W 008°57'611.8
2018-Apr-18 19:29N 38°09' W 008°58'612.3
2018-Apr-18 19:00N 38°15' W 008°58'712.2
2018-Apr-18 18:27N 38°22' W 008°58'5 0.1
2018-Apr-16 15:45N 38°23' W 009°04'3 9.4
2018-Apr-16 15:25N 38°26' W 009°01'3 5.0
2018-Apr-16 14:54N 38°27' W 008°58'0 0.1
2018-Apr-16 12:53N 38°27' W 008°58'0 0.3
2018-Apr-16 12:07N 38°27' W 008°58'0 0.3
2018-Apr-16 11:49N 38°27' W 008°58'0 0.2
2018-Apr-16 11:21N 38°27' W 008°58'5 7.1
2018-Apr-16 10:36N 38°29' W 008°52'  
Track history (hours):
 
Tides and Currents Weather Stations Pressure Air Temp Water Temp Dewpoint Dewpoint Depression Visibility Wind Speed Wind Dir Waves Ship Positions

Peneda

Last reported at 2018-Apr-22 06:58 UTC. Time now 2018-Apr-24 08:51 UTC.
Position N 38°28' W 008°48'.

Length 33 m.

Type: Tug. MMSI: 263601670.

Date/timePositionNaut miles runAvg speedWind from/ knotsBaromVisibWave heightAir tempDewpointWater temp
2018-Apr-22 06:58N 38°28' W 008°48'9 1.6
2018-Apr-22 01:40N 38°26' W 008°59'310.6
2018-Apr-22 01:25N 38°24' W 008°58'2 0.0
2018-Apr-20 08:21N 38°22' W 008°59'610.8
2018-Apr-20 07:47N 38°16' W 008°59'410.5
2018-Apr-20 07:26N 38°12' W 008°59'511.0
2018-Apr-20 06:58N 38°07' W 008°59'610.9
2018-Apr-20 06:25N 38°01' W 008°57'511.0
2018-Apr-20 05:58N 37°57' W 008°55'3 5.1
2018-Apr-20 05:26N 37°57' W 008°52'0 0.0
2018-Apr-19 21:26N 37°57' W 008°52'0 0.0
2018-Apr-19 20:59N 37°57' W 008°52'0 0.0
2018-Apr-19 20:29N 37°57' W 008°52'0 0.0
2018-Apr-19 19:56N 37°57' W 008°52'0 0.0
2018-Apr-19 19:29N 37°57' W 008°52'0 0.0
2018-Apr-19 18:59N 37°57' W 008°52'0 0.0
2018-Apr-19 18:29N 37°57' W 008°52'0 0.0
2018-Apr-19 17:59N 37°57' W 008°52'0 0.0
2018-Apr-19 17:26N 37°57' W 008°52'0 0.0
2018-Apr-19 16:59N 37°57' W 008°52'0 0.0
2018-Apr-19 16:29N 37°57' W 008°52'0 0.0
2018-Apr-19 15:59N 37°57' W 008°52'0 0.0
2018-Apr-19 15:29N 37°57' W 008°52'0 0.0
2018-Apr-19 14:59N 37°57' W 008°52'0 0.0
2018-Apr-19 14:29N 37°57' W 008°52'0 0.0
2018-Apr-19 13:59N 37°57' W 008°52'1 2.9
2018-Apr-19 13:30N 37°55' W 008°52'1 1.7
2018-Apr-19 13:00N 37°56' W 008°51'0 0.0
2018-Apr-19 12:30N 37°56' W 008°51'0 0.0
2018-Apr-19 11:49N 37°56' W 008°51'0 0.1
2018-Apr-19 11:25N 37°56' W 008°51'0 1.0
2018-Apr-19 11:00N 37°55' W 008°50'1 2.2
2018-Apr-19 10:30N 37°54' W 008°50'2 2.9
2018-Apr-19 09:59N 37°56' W 008°51'0 0.5
2018-Apr-19 09:31N 37°56' W 008°51'0 0.2
2018-Apr-19 09:00N 37°56' W 008°51'0 0.7
2018-Apr-19 08:30N 37°56' W 008°51'0 0.0
2018-Apr-19 07:54N 37°56' W 008°51'0 0.0
2018-Apr-19 07:30N 37°56' W 008°51'0 0.0
2018-Apr-19 07:00N 37°56' W 008°51'0 0.0
2018-Apr-19 06:30N 37°56' W 008°51'0 0.0
2018-Apr-19 06:00N 37°56' W 008°51'0 0.0
2018-Apr-19 05:30N 37°56' W 008°51'0 0.0
2018-Apr-19 05:00N 37°56' W 008°51'0 0.0
2018-Apr-19 04:27N 37°56' W 008°51'0 0.0
2018-Apr-19 03:57N 37°56' W 008°51'0 0.0
2018-Apr-19 03:30N 37°56' W 008°51'0 0.0
2018-Apr-19 03:00N 37°56' W 008°51'0 0.0
2018-Apr-19 02:30N 37°56' W 008°51'1 2.1
2018-Apr-19 01:59N 37°57' W 008°52'0 0.1
2018-Apr-19 01:30N 37°57' W 008°52'0 0.0
2018-Apr-19 01:00N 37°57' W 008°52'0 0.0
2018-Apr-19 00:30N 37°57' W 008°52'0 0.0
2018-Apr-19 00:00N 37°57' W 008°52'0 0.0
2018-Apr-18 23:30N 37°57' W 008°52'0 0.0
2018-Apr-18 23:00N 37°57' W 008°52'0 0.0
2018-Apr-18 22:30N 37°57' W 008°52'0 0.0
2018-Apr-18 22:00N 37°57' W 008°52'0 0.0
2018-Apr-18 21:30N 37°57' W 008°52'0 0.7
2018-Apr-18 21:00N 37°57' W 008°52'3 5.6
2018-Apr-18 20:30N 37°58' W 008°55'611.5
2018-Apr-18 19:59N 38°04' W 008°57'611.8
2018-Apr-18 19:29N 38°09' W 008°58'612.3
2018-Apr-18 19:00N 38°15' W 008°58'712.2
2018-Apr-18 18:27N 38°22' W 008°58'5 0.1
2018-Apr-16 15:45N 38°23' W 009°04'3 9.4
2018-Apr-16 15:25N 38°26' W 009°01'3 5.0
2018-Apr-16 14:54N 38°27' W 008°58'0 0.1
2018-Apr-16 12:53N 38°27' W 008°58'0 0.3
2018-Apr-16 12:07N 38°27' W 008°58'0 0.3
2018-Apr-16 11:49N 38°27' W 008°58'0 0.2
2018-Apr-16 11:21N 38°27' W 008°58'5 7.1
2018-Apr-16 10:36N 38°29' W 008°52'  

Dump ship's entire track history